Time;durP1;ratioP1;P1;durP2;ratioP2;P2;SDS_P1;SDS_P2;PMS_P1;PMS_P2;Temp;Humidity;BMP_temperature;BMP_pressure;BME280_temperature;BME280_humidity;BME280_pressure;Samples;Min_cycle;Max_cycle;Signal;HPM_P1;HPM_P2
2022/09/10 00:00:30;;;;;;;6.05;3.40;;;;;;;23.05;59.83;100323.31;5049541;28;20491;-65
2022/09/10 00:02:55;;;;;;;8.27;3.92;;;;;;;23.03;59.89;100330.34;5041494;28;20024;-69
2022/09/10 00:05:20;;;;;;;9.65;3.53;;;;;;;22.80;60.90;100328.09;5048340;28;20459;-65
2022/09/10 00:07:46;;;;;;;4.75;3.30;;;;;;;22.79;61.21;100321.09;5048733;28;20446;-65
2022/09/10 00:10:12;;;;;;;5.20;3.22;;;;;;;22.88;61.31;100320.06;4998748;28;20578;-68
2022/09/10 00:12:38;;;;;;;6.07;3.00;;;;;;;22.83;62.10;100317.53;5050502;28;20023;-67
2022/09/10 00:15:05;;;;;;;7.32;3.60;;;;;;;22.94;61.57;100317.34;5049672;28;20035;-68
2022/09/10 00:17:31;;;;;;;5.95;3.60;;;;;;;23.03;61.53;100313.69;5050270;28;20036;-69
2022/09/10 00:19:58;;;;;;;6.97;3.60;;;;;;;23.07;60.98;100305.72;5050283;28;20025;-68
2022/09/10 00:22:24;;;;;;;6.22;3.20;;;;;;;23.06;60.97;100303.97;5045247;28;20056;-69
2022/09/10 00:24:56;;;;;;;5.95;3.10;;;;;;;22.82;62.31;100309.63;5041317;28;20491;-68
2022/09/10 00:27:22;;;;;;;6.63;3.58;;;;;;;22.80;62.23;100311.44;5049883;28;20021;-68
2022/09/10 00:29:52;;;;;;;11.07;3.40;;;;;;;22.69;62.68;100304.59;5050185;28;20029;-68
2022/09/10 00:32:20;;;;;;;8.52;3.60;;;;;;;22.69;62.80;100299.34;5049947;28;20103;-68
2022/09/10 00:34:46;;;;;;;10.32;4.03;;;;;;;22.80;63.11;100304.41;5049724;28;20487;-68
2022/09/10 00:37:13;;;;;;;6.50;3.33;;;;;;;22.76;62.71;100279.03;5031983;28;20041;-70
2022/09/10 00:39:39;;;;;;;8.70;3.50;;;;;;;22.95;62.34;100321.72;5049963;28;20055;-68
2022/09/10 00:42:06;;;;;;;8.00;3.58;;;;;;;22.78;62.47;100319.38;5018954;28;20106;-69
2022/09/10 00:44:40;;;;;;;7.35;3.75;;;;;;;22.65;63.12;100320.44;5023244;28;20071;-68
2022/09/10 00:47:15;;;;;;;8.20;3.83;;;;;;;22.64;62.50;100322.19;5049771;28;20040;-68
2022/09/10 00:49:45;;;;;;;9.75;3.55;;;;;;;22.58;62.71;100298.59;5049662;28;20029;-68
2022/09/10 00:52:11;;;;;;;5.72;3.67;;;;;;;22.57;63.90;100305.66;5046301;28;20059;-66
2022/09/10 00:54:39;;;;;;;7.82;3.17;;;;;;;22.37;63.43;100302.41;5049254;28;20414;-69
2022/09/10 00:57:11;;;;;;;12.50;4.25;;;;;;;22.36;63.24;100287.53;5049698;28;20021;-68
2022/09/10 00:59:41;;;;;;;12.43;3.70;;;;;;;22.11;63.76;100254.56;5049423;28;20037;-68
2022/09/10 01:02:07;;;;;;;9.25;3.50;;;;;;;22.32;63.40;100294.59;5049371;28;20025;-68
2022/09/10 01:04:33;;;;;;;7.90;3.80;;;;;;;22.18;63.95;100286.91;5049439;28;20494;-69
2022/09/10 01:07:00;;;;;;;10.18;3.60;;;;;;;22.22;64.24;100298.22;5049287;28;20060;-71
2022/09/10 01:09:27;;;;;;;9.25;3.65;;;;;;;22.29;63.56;100299.88;5049242;28;20487;-69
2022/09/10 01:11:55;;;;;;;6.75;3.60;;;;;;;22.29;64.13;100306.03;5049468;28;20028;-68
2022/09/10 01:14:38;;;;;;;5.35;3.55;;;;;;;22.22;64.26;100303.47;5022673;28;20048;-68
2022/09/10 01:17:16;;;;;;;5.97;3.40;;;;;;;21.83;64.26;100238.28;5049164;28;20410;-68
2022/09/10 01:20:13;;;;;;;13.75;3.92;;;;;;;22.24;63.27;100291.19;5049375;28;20028;-69
2022/09/10 01:23:10;;;;;;;9.77;3.88;;;;;;;22.22;63.41;100288.59;5049348;28;20028;-70
2022/09/10 01:26:12;;;;;;;6.88;3.15;;;;;;;22.02;63.96;100283.63;5049324;28;20033;-69
2022/09/10 01:28:47;;;;;;;6.78;3.60;;;;;;;21.88;65.67;100299.56;5049907;28;20096;-66
2022/09/10 01:31:30;;;;;;;11.23;3.60;;;;;;;21.91;66.42;100298.66;5052580;28;20021;-68
2022/09/10 01:34:17;;;;;;;10.48;3.55;;;;;;;21.92;66.92;100298.63;5052679;28;20053;-68
2022/09/10 01:36:47;;;;;;;7.03;3.30;;;;;;;21.83;67.21;100293.47;5053358;28;20060;-68
2022/09/10 01:39:16;;;;;;;7.25;3.03;;;;;;;21.78;67.54;100284.78;5052292;28;20472;-68
2022/09/10 01:41:42;;;;;;;9.27;3.17;;;;;;;21.87;66.77;100292.56;5052981;28;20031;-68
2022/09/10 01:44:50;;;;;;;10.77;3.60;;;;;;;21.95;67.39;100284.56;5052677;28;20047;-68
2022/09/10 01:47:53;;;;;;;6.10;3.20;;;;;;;22.00;68.02;100289.78;4952200;28;20035;-68
2022/09/10 01:50:40;;;;;;;8.98;3.80;;;;;;;21.84;67.46;100258.44;4952571;28;20599;-68
2022/09/10 01:53:32;;;;;;;5.35;3.03;;;;;;;21.91;68.75;100294.25;4951965;29;20458;-70
2022/09/10 01:56:15;;;;;;;5.93;3.10;;;;;;;21.79;68.71;100291.78;4932888;29;20046;-68
2022/09/10 01:58:43;;;;;;;11.75;3.60;;;;;;;21.76;68.86;100300.56;4948313;28;20035;-67
2022/09/10 02:01:22;;;;;;;5.72;3.20;;;;;;;21.73;69.03;100303.25;4951615;29;20027;-70
2022/09/10 02:03:53;;;;;;;5.22;3.13;;;;;;;21.63;69.10;100293.72;4936093;29;20190;-66
2022/09/10 02:06:21;;;;;;;6.13;3.42;;;;;;;21.46;69.50;100289.50;4951930;28;20039;-65
2022/09/10 02:08:51;;;;;;;6.97;3.15;;;;;;;21.42;70.13;100300.94;4952135;29;20027;-66
2022/09/10 02:11:17;;;;;;;;;;;;;;;21.36;70.52;100305.34;4952545;29;20050;-65
2022/09/10 02:13:42;;;;;;;8.73;3.50;;;;;;;21.28;70.42;100297.56;4951589;29;19911;-66
2022/09/10 02:16:12;;;;;;;7.88;4.00;;;;;;;21.19;69.96;100272.28;4951975;29;20040;-66
2022/09/10 02:18:38;;;;;;;6.60;3.70;;;;;;;21.10;70.73;100273.22;4951850;29;20098;-66
2022/09/10 02:21:05;;;;;;;5.97;3.53;;;;;;;21.25;70.74;100308.09;4951611;28;20039;-70
2022/09/10 02:23:37;;;;;;;9.23;3.58;;;;;;;21.05;70.74;100287.28;4982702;28;20528;-66
2022/09/10 02:26:02;;;;;;;6.57;3.70;;;;;;;21.15;70.82;100308.19;5051729;28;20059;-69
2022/09/10 02:28:29;;;;;;;6.72;3.85;;;;;;;21.08;70.85;100306.50;5041604;28;20541;-65
2022/09/10 02:30:54;;;;;;;6.18;3.58;;;;;;;21.14;71.38;100311.69;5048638;28;20478;-65
2022/09/10 02:33:20;;;;;;;9.23;3.67;;;;;;;21.04;71.28;100269.81;5051683;28;20033;-65
2022/09/10 02:35:47;;;;;;;4.80;3.45;;;;;;;21.11;70.79;100263.59;5052055;28;20055;-66
2022/09/10 02:38:12;;;;;;;8.98;4.15;;;;;;;21.38;70.21;100288.69;4970393;28;20121;-67
2022/09/10 02:40:38;;;;;;;7.70;3.70;;;;;;;21.49;70.58;100291.22;4970483;28;20046;-68
2022/09/10 02:43:03;;;;;;;7.72;3.65;;;;;;;21.40;70.72;100291.34;4970401;28;20097;-72
2022/09/10 02:45:29;;;;;;;7.95;3.97;;;;;;;21.48;69.91;100292.09;4970666;28;20035;-66
2022/09/10 02:47:55;;;;;;;7.47;3.53;;;;;;;21.51;69.32;100284.19;4970434;28;20050;-65
2022/09/10 02:50:20;;;;;;;9.00;3.67;;;;;;;21.55;69.94;100295.53;4970821;28;20073;-69
2022/09/10 02:52:46;;;;;;;6.13;4.00;;;;;;;21.47;69.97;100298.22;4960183;28;20737;-68
2022/09/10 02:55:12;;;;;;;12.60;3.67;;;;;;;21.51;70.13;100289.44;4967107;28;20122;-68
2022/09/10 02:57:38;;;;;;;8.18;3.78;;;;;;;21.29;68.60;100246.78;4970195;28;20170;-65
2022/09/10 03:00:05;;;;;;;8.38;3.70;;;;;;;21.32;69.99;100252.00;4970268;28;20118;-69
2022/09/10 03:02:31;;;;;;;6.95;3.60;;;;;;;21.61;66.92;100279.75;4970444;28;20027;-67
2022/09/10 03:04:57;;;;;;;7.38;4.00;;;;;;;21.65;67.21;100286.69;4953910;28;20042;-67
2022/09/10 03:07:22;;;;;;;9.02;3.97;;;;;;;21.45;67.75;100258.00;4970127;28;20117;-70
2022/09/10 03:09:48;;;;;;;5.82;3.33;;;;;;;21.58;69.18;100291.16;5031068;28;20041;-69
2022/09/10 03:12:15;;;;;;;4.40;3.35;;;;;;;21.61;69.13;100301.63;5050995;28;20067;-69
2022/09/10 03:14:41;;;;;;;6.35;3.38;;;;;;;21.45;69.70;100268.50;5051296;28;20025;-66
2022/09/10 03:17:07;;;;;;;13.07;4.20;;;;;;;21.55;70.45;100303.44;5051338;28;20037;-69
2022/09/10 03:19:32;;;;;;;7.88;3.50;;;;;;;21.26;71.01;100271.34;5051589;28;20556;-65
2022/09/10 03:21:58;;;;;;;7.38;3.40;;;;;;;21.36;71.87;100303.63;5033433;28;20024;-70
2022/09/10 03:24:24;;;;;;;7.25;3.75;;;;;;;21.26;72.55;100313.34;5050598;28;20021;-68
2022/09/10 03:26:49;;;;;;;9.25;4.00;;;;;;;21.22;72.90;100301.13;4999163;28;20494;-67
2022/09/10 03:29:15;;;;;;;7.78;3.92;;;;;;;21.26;73.30;100297.59;5050483;28;20029;-70
2022/09/10 03:31:41;;;;;;;7.63;3.72;;;;;;;21.39;72.63;100294.84;5050859;28;20039;-68
2022/09/10 03:34:09;;;;;;;11.45;3.80;;;;;;;21.44;71.66;100293.88;5050716;28;20568;-65
2022/09/10 03:36:55;;;;;;;8.70;4.10;;;;;;;21.33;72.36;100301.00;5027995;28;20052;-66
2022/09/10 03:39:20;;;;;;;8.82;3.92;;;;;;;21.17;72.53;100261.78;4997002;28;20053;-65
2022/09/10 03:41:45;;;;;;;8.13;4.13;;;;;;;21.34;71.92;100302.75;5028312;28;20577;-66
2022/09/10 03:44:11;;;;;;;9.68;3.92;;;;;;;21.31;71.99;100294.91;5028243;28;20037;-69
2022/09/10 03:46:37;;;;;;;7.78;4.20;;;;;;;21.33;72.27;100301.00;5028289;28;20478;-65
2022/09/10 03:49:05;;;;;;;8.88;3.80;;;;;;;21.26;70.03;100288.81;5028194;28;20037;-69
2022/09/10 03:51:30;;;;;;;9.98;3.88;;;;;;;21.14;70.23;100293.31;5016685;28;20092;-67
2022/09/10 03:53:58;;;;;;;10.43;3.70;;;;;;;21.09;69.35;100281.13;5010624;28;20041;-66
2022/09/10 03:56:24;;;;;;;8.43;3.70;;;;;;;21.24;69.62;100295.88;5019880;28;20602;-68
2022/09/10 03:58:50;;;;;;;21.02;4.80;;;;;;;20.75;70.58;100236.81;5027120;28;20026;-68
2022/09/10 04:01:16;;;;;;;14.90;4.13;;;;;;;20.89;71.59;100297.06;5027411;28;20580;-69
2022/09/10 04:03:42;;;;;;;5.93;3.65;;;;;;;20.84;71.37;100310.22;5027473;28;20042;-69
2022/09/10 04:06:11;;;;;;;6.07;3.92;;;;;;;20.81;72.65;100329.47;5027423;28;20481;-69
2022/09/10 04:08:38;;;;;;;8.88;4.13;;;;;;;20.90;72.75;100314.53;5027516;28;20155;-68
2022/09/10 04:11:05;;;;;;;11.30;4.40;;;;;;;20.75;72.54;100286.66;5027329;28;20057;-68
2022/09/10 04:13:31;;;;;;;7.80;4.13;;;;;;;20.87;72.59;100301.44;5030615;28;20037;-65
2022/09/10 04:15:59;;;;;;;7.15;3.65;;;;;;;20.78;71.95;100276.16;5049927;28;20025;-68
2022/09/10 04:18:26;;;;;;;11.00;4.25;;;;;;;21.04;71.59;100310.03;5050146;28;20029;-69
2022/09/10 04:20:52;;;;;;;8.40;4.18;;;;;;;21.12;70.70;100315.22;5048528;28;20045;-67
2022/09/10 04:23:17;;;;;;;13.63;4.32;;;;;;;21.16;70.13;100315.19;5048244;28;20409;-69
2022/09/10 04:25:43;;;;;;;8.48;5.22;;;;;;;21.13;71.44;100315.22;5049471;28;20021;-67
2022/09/10 04:28:10;;;;;;;16.67;4.70;;;;;;;21.10;71.69;100309.97;5036295;28;20483;-69
2022/09/10 04:30:36;;;;;;;10.07;4.50;;;;;;;21.04;70.99;100296.06;4991264;28;20033;-68
2022/09/10 04:33:02;;;;;;;9.77;4.43;;;;;;;21.19;71.21;100323.91;5035874;28;20037;-70
2022/09/10 04:35:27;;;;;;;13.15;4.32;;;;;;;21.17;71.44;100324.81;5049745;28;20021;-70
2022/09/10 04:37:52;;;;;;;8.27;4.85;;;;;;;21.09;71.86;100317.88;5050079;28;20048;-70
2022/09/10 04:40:18;;;;;;;9.40;4.22;;;;;;;21.04;72.23;100317.06;5049497;28;20499;-70
2022/09/10 04:42:43;;;;;;;12.65;4.68;;;;;;;20.91;73.39;100313.63;5049969;28;20099;-71
2022/09/10 04:45:09;;;;;;;15.68;5.28;;;;;;;20.88;74.02;100321.56;5049987;28;20032;-72
2022/09/10 04:47:35;;;;;;;16.00;4.72;;;;;;;20.92;73.58;100315.38;5050259;28;20075;-70
2022/09/10 04:50:00;;;;;;;14.18;5.38;;;;;;;20.82;74.29;100327.69;5049395;28;20037;-75
2022/09/10 04:52:26;;;;;;;13.15;5.25;;;;;;;20.77;75.22;100317.28;5049676;28;20112;-68
2022/09/10 04:54:52;;;;;;;13.60;5.25;;;;;;;20.63;76.06;100314.69;5049592;28;20490;-70
2022/09/10 04:57:17;;;;;;;15.60;8.38;;;;;;;20.71;76.32;100311.16;5032014;28;20025;-74
2022/09/10 04:59:43;;;;;;;18.35;8.45;;;;;;;20.75;76.54;100310.25;5049733;28;20064;-72
2022/09/10 05:02:09;;;;;;;15.98;8.38;;;;;;;20.81;76.62;100297.09;5049709;28;20096;-70
2022/09/10 05:04:35;;;;;;;14.80;8.15;;;;;;;20.98;76.79;100310.09;5051550;28;20402;-68
2022/09/10 05:07:00;;;;;;;14.50;7.35;;;;;;;21.08;76.33;100309.13;5053686;28;20057;-72
2022/09/10 05:09:30;;;;;;;13.80;5.78;;;;;;;21.13;75.08;100294.22;5053828;28;20032;-71
2022/09/10 05:11:56;;;;;;;;;;;;;;;21.25;74.85;100297.59;5054068;28;20435;-68
2022/09/10 05:14:22;;;;;;;6.43;4.20;;;;;;;21.28;75.11;100287.06;5054004;28;19947;-73
2022/09/10 05:17:07;;;;;;;5.60;3.80;;;;;;;21.48;75.24;100306.13;5011044;28;20076;-70
2022/09/10 05:19:32;;;;;;;9.32;3.90;;;;;;;21.52;75.04;100301.72;4978710;28;20070;-71
2022/09/10 05:21:57;;;;;;;12.98;4.22;;;;;;;21.60;75.69;100304.28;5011386;28;20038;-70
2022/09/10 05:24:23;;;;;;;15.48;4.75;;;;;;;21.67;75.06;100299.81;5011227;28;20512;-70
2022/09/10 05:26:48;;;;;;;13.20;5.55;;;;;;;21.63;75.37;100296.34;5011363;28;20091;-69
2022/09/10 05:29:15;;;;;;;14.48;6.72;;;;;;;21.57;77.76;100305.19;5011165;28;20157;-69
2022/09/10 05:31:41;;;;;;;14.52;7.53;;;;;;;21.54;79.04;100304.31;4994344;28;20121;-77
2022/09/10 05:34:07;;;;;;;17.77;7.28;;;;;;;21.60;78.70;100296.41;5011285;28;20068;-72
2022/09/10 05:36:32;;;;;;;14.05;5.85;;;;;;;21.71;77.09;100297.13;5011122;28;20076;-69
2022/09/10 05:38:59;;;;;;;12.57;5.57;;;;;;;21.81;76.34;100295.28;5010821;28;20101;-70
2022/09/10 05:41:24;;;;;;;7.47;5.22;;;;;;;21.74;77.42;100269.94;5010899;28;20053;-72
2022/09/10 05:43:50;;;;;;;7.95;4.78;;;;;;;21.87;77.22;100295.19;5010917;28;20725;-69
2022/09/10 05:46:16;;;;;;;9.70;4.38;;;;;;;21.89;76.18;100297.78;5010574;28;20184;-71
2022/09/10 05:48:41;;;;;;;9.65;4.10;;;;;;;21.87;77.58;100286.41;5042130;28;20033;-69
2022/09/10 05:51:07;;;;;;;8.38;4.03;;;;;;;21.97;76.05;100306.47;5052661;28;20107;-72
2022/09/10 05:53:32;;;;;;;6.32;3.70;;;;;;;22.01;75.15;100310.78;5053182;28;20154;-72
2022/09/10 05:55:58;;;;;;;5.22;4.03;;;;;;;21.78;76.58;100313.69;5053118;28;20029;-67
2022/09/10 05:58:24;;;;;;;7.72;4.05;;;;;;;21.75;76.58;100314.59;5052618;28;20587;-71
2022/09/10 06:00:57;;;;;;;9.68;4.43;;;;;;;21.69;76.63;100313.81;5052611;28;20029;-69
2022/09/10 06:03:23;;;;;;;13.68;4.28;;;;;;;21.82;76.58;100304.91;5052640;28;20555;-71
2022/09/10 06:05:50;;;;;;;7.03;4.20;;;;;;;21.88;76.82;100299.56;5052739;28;20025;-70
2022/09/10 06:08:16;;;;;;;8.45;4.07;;;;;;;22.01;73.93;100305.53;5053086;28;20036;-69
2022/09/10 06:10:42;;;;;;;9.48;4.75;;;;;;;21.83;74.83;100298.72;5052494;28;20025;-69
2022/09/10 06:13:08;;;;;;;7.13;5.00;;;;;;;21.79;75.45;100283.91;5052237;28;20052;-69
2022/09/10 06:15:36;;;;;;;10.15;5.05;;;;;;;21.87;75.53;100295.19;5052060;28;20112;-69
2022/09/10 06:18:02;;;;;;;9.98;4.95;;;;;;;21.91;74.91;100289.00;5036412;28;20035;-69
2022/09/10 06:20:28;;;;;;;6.72;4.53;;;;;;;21.67;74.95;100260.41;5032859;28;20032;-71
2022/09/10 06:22:54;;;;;;;12.60;5.30;;;;;;;21.65;74.93;100255.16;5032309;28;20029;-71
2022/09/10 06:25:19;;;;;;;12.70;5.80;;;;;;;21.92;74.24;100284.59;5032910;28;20526;-71
2022/09/10 06:27:46;;;;;;;8.90;5.70;;;;;;;22.14;73.20;100277.31;5032680;28;20030;-72
2022/09/10 06:30:11;;;;;;;13.20;5.65;;;;;;;22.34;73.48;100282.28;5032569;28;20037;-72
2022/09/10 06:32:38;;;;;;;11.98;5.90;;;;;;;22.20;72.41;100276.38;5032521;28;20476;-71
2022/09/10 06:35:04;;;;;;;13.25;5.55;;;;;;;22.24;72.84;100286.81;5032164;28;20025;-70
2022/09/10 06:37:33;;;;;;;10.48;5.35;;;;;;;22.38;71.70;100304.16;5032275;28;20021;-72
2022/09/10 06:39:59;;;;;;;13.55;5.90;;;;;;;22.50;73.00;100303.13;4980950;28;20045;-72
2022/09/10 06:42:25;;;;;;;7.63;5.00;;;;;;;22.60;71.97;100278.41;5032194;28;20059;-72
2022/09/10 06:44:51;;;;;;;14.32;6.32;;;;;;;22.72;70.89;100282.63;5032693;28;20106;-72
2022/09/10 06:47:16;;;;;;;10.85;5.63;;;;;;;22.77;71.24;100284.28;5032343;28;20037;-70
2022/09/10 06:49:41;;;;;;;12.60;5.50;;;;;;;22.86;70.55;100277.13;5032263;28;20045;-72
2022/09/10 06:52:07;;;;;;;11.35;6.00;;;;;;;23.03;69.92;100282.97;5032244;28;20458;-72
2022/09/10 06:54:32;;;;;;;13.15;5.55;;;;;;;22.90;69.58;100273.53;5032079;28;20407;-72
2022/09/10 06:56:58;;;;;;;13.70;6.25;;;;;;;23.09;70.71;100297.78;5031997;28;20013;-72
2022/09/10 06:59:23;;;;;;;11.70;5.43;;;;;;;23.16;69.38;100302.06;5031926;28;20112;-72
2022/09/10 07:01:48;;;;;;;9.07;5.90;;;;;;;23.20;69.45;100300.25;5032102;28;20032;-72
2022/09/10 07:04:14;;;;;;;16.92;6.00;;;;;;;22.83;69.95;100269.25;5032149;28;20060;-73
2022/09/10 07:06:39;;;;;;;10.32;5.80;;;;;;;23.17;68.47;100300.31;5031976;28;20112;-73
2022/09/10 07:09:05;;;;;;;10.88;6.18;;;;;;;23.30;67.38;100296.53;5031861;28;20514;-73
2022/09/10 07:11:31;;;;;;;10.55;6.75;;;;;;;23.52;66.39;100278.56;5031671;28;20025;-72
2022/09/10 07:13:58;;;;;;;17.13;6.47;;;;;;;23.79;65.00;100257.84;5032112;28;20029;-74
2022/09/10 07:16:25;;;;;;;13.13;6.53;;;;;;;24.22;63.17;100285.94;5030858;28;20101;-73
2022/09/10 07:18:53;;;;;;;16.88;6.10;;;;;;;24.45;62.55;100286.28;5031302;28;20033;-72
2022/09/10 07:21:20;;;;;;;13.15;5.90;;;;;;;24.62;63.03;100293.81;5031609;28;20036;-71
2022/09/10 07:23:50;;;;;;;13.43;5.40;;;;;;;24.77;60.86;100290.81;5031633;28;20029;-71
2022/09/10 07:26:18;;;;;;;11.75;5.32;;;;;;;24.47;59.42;100239.63;5030973;28;20025;-71
2022/09/10 07:28:45;;;;;;;13.85;6.05;;;;;;;24.87;58.71;100286.19;5031683;28;20041;-73
2022/09/10 07:31:14;;;;;;;14.50;5.70;;;;;;;25.09;57.59;100293.56;5031961;28;20102;-71
2022/09/10 07:33:39;;;;;;;;;;;;;;;25.14;56.31;100287.25;5031902;28;20060;-72
2022/09/10 07:36:05;;;;;;;13.57;5.07;;;;;;;24.92;55.98;100296.63;5031273;28;20383;-72
2022/09/10 07:38:31;;;;;;;11.25;5.45;;;;;;;24.83;56.66;100298.59;5031303;28;20057;-72
2022/09/10 07:40:59;;;;;;;9.70;4.57;;;;;;;24.89;56.57;100300.22;5031302;28;20029;-72
2022/09/10 07:43:25;;;;;;;11.27;5.60;;;;;;;24.93;56.60;100290.44;5031464;28;20083;-72
2022/09/10 07:45:50;;;;;;;16.30;5.80;;;;;;;24.82;56.82;100272.22;5031424;28;20519;-72
2022/09/10 07:48:16;;;;;;;8.32;5.10;;;;;;;24.93;57.34;100275.47;5031251;28;20111;-72
2022/09/10 07:50:42;;;;;;;19.90;7.78;;;;;;;24.92;57.28;100291.34;5031224;28;20551;-72
2022/09/10 07:53:08;;;;;;;9.90;4.68;;;;;;;24.89;57.84;100284.38;5031059;28;20033;-72
2022/09/10 07:55:33;;;;;;;10.07;5.28;;;;;;;24.89;57.43;100284.38;5013302;28;20387;-73
2022/09/10 07:57:58;;;;;;;20.00;7.38;;;;;;;24.71;58.25;100248.72;5031640;28;20416;-72
2022/09/10 08:00:24;;;;;;;15.73;7.10;;;;;;;25.04;61.17;100268.13;5031010;28;20503;-72
2022/09/10 08:02:49;;;;;;;15.10;6.57;;;;;;;25.18;58.95;100272.19;5031074;28;20091;-72
2022/09/10 08:05:15;;;;;;;11.27;6.45;;;;;;;25.17;58.92;100255.47;5030937;28;20057;-72
2022/09/10 08:07:41;;;;;;;19.98;6.65;;;;;;;25.29;58.32;100262.19;5030748;28;20060;-72
2022/09/10 08:10:08;;;;;;;17.33;7.43;;;;;;;25.36;58.14;100268.19;5030664;28;20029;-72
2022/09/10 08:12:39;;;;;;;12.35;6.20;;;;;;;25.43;57.58;100272.41;5029518;28;20033;-72
2022/09/10 08:15:07;;;;;;;12.52;6.22;;;;;;;25.47;57.18;100260.84;5030708;28;20029;-72
2022/09/10 08:17:35;;;;;;;19.17;6.45;;;;;;;25.84;56.05;100282.69;5030828;28;20033;-73
2022/09/10 08:20:03;;;;;;;15.48;7.05;;;;;;;26.02;55.87;100273.38;5030474;28;20108;-72
2022/09/10 08:22:30;;;;;;;16.42;7.57;;;;;;;26.16;55.21;100268.53;5030510;28;20462;-72
2022/09/10 08:24:55;;;;;;;33.22;10.63;;;;;;;26.24;55.47;100257.69;5030811;28;20026;-72
2022/09/10 08:27:21;;;;;;;79.40;17.70;;;;;;;26.30;55.23;100256.66;5030878;28;20096;-71
2022/09/10 08:29:46;;;;;;;45.67;12.00;;;;;;;26.41;55.55;100254.53;5030739;28;20411;-72
2022/09/10 08:32:12;;;;;;;50.22;13.43;;;;;;;26.62;58.92;100249.47;4988808;28;20423;-72
2022/09/10 08:34:38;;;;;;;56.65;14.07;;;;;;;26.76;56.74;100243.72;4982388;28;20096;-71
2022/09/10 08:37:03;;;;;;;82.80;17.75;;;;;;;26.91;54.19;100237.03;4979931;28;20050;-71
2022/09/10 08:39:30;;;;;;;46.85;12.38;;;;;;;27.13;57.16;100245.94;4987319;28;20054;-72
2022/09/10 08:42:04;;;;;;;50.13;12.18;;;;;;;27.33;55.97;100248.78;5003404;28;20424;-74
2022/09/10 08:44:47;;;;;;;49.15;12.75;;;;;;;27.26;52.42;100221.66;4977470;28;20026;-74
2022/09/10 08:47:44;;;;;;;48.45;13.85;;;;;;;27.54;54.52;100241.88;5003239;28;20486;-73
2022/09/10 08:50:32;;;;;;;46.08;12.95;;;;;;;27.63;52.25;100240.66;5003298;28;20049;-71
2022/09/10 08:53:30;;;;;;;41.90;11.73;;;;;;;27.59;52.70;100211.63;4954251;28;20578;-71
2022/09/10 08:56:02;;;;;;;26.60;10.05;;;;;;;27.83;51.27;100230.16;4981603;28;20873;-74
2022/09/10 08:59:04;;;;;;;39.97;10.05;;;;;;;27.92;50.99;100220.97;4972331;28;20791;-71
2022/09/10 09:01:43;;;;;;;23.33;8.55;;;;;;;27.96;50.58;100230.53;4868811;29;20051;-72
2022/09/10 09:04:15;;;;;;;30.65;9.15;;;;;;;27.93;50.64;100228.03;4889704;29;20111;-73
2022/09/10 09:06:56;;;;;;;25.58;9.77;;;;;;;28.05;52.32;100232.88;4892585;29;20047;-75
2022/09/10 09:09:21;;;;;;;19.50;8.85;;;;;;;28.11;55.47;100210.53;4876619;29;20082;-74
2022/09/10 09:12:06;;;;;;;29.77;8.95;;;;;;;28.29;53.01;100227.50;4892668;29;20108;-74
2022/09/10 09:14:52;;;;;;;23.40;7.00;;;;;;;28.02;52.27;100213.53;4892595;29;20044;-73
2022/09/10 09:18:01;;;;;;;10.80;6.22;;;;;;;27.98;53.53;100219.88;4892747;29;20124;-75
2022/09/10 09:20:46;;;;;;;13.23;6.50;;;;;;;27.76;53.94;100183.56;4837055;29;20034;-72
2022/09/10 09:23:11;;;;;;;10.85;6.05;;;;;;;27.73;54.44;100191.66;4837046;29;20077;-74
2022/09/10 09:25:56;;;;;;;7.85;4.85;;;;;;;27.82;52.21;100190.44;4837070;29;20534;-74
2022/09/10 09:28:39;;;;;;;8.43;5.40;;;;;;;27.91;52.50;100198.03;4873978;29;20127;-75
2022/09/10 09:31:12;;;;;;;10.52;5.30;;;;;;;28.08;51.86;100205.34;4873796;29;20056;-74
2022/09/10 09:33:39;;;;;;;11.95;5.55;;;;;;;27.80;54.35;100195.78;4873903;29;20076;-75
2022/09/10 09:36:06;;;;;;;7.78;5.22;;;;;;;28.03;51.83;100191.38;4873845;29;20052;-74
2022/09/10 09:38:36;;;;;;;10.20;5.13;;;;;;;28.19;52.06;100178.38;4935429;28;20532;-74
2022/09/10 09:41:14;;;;;;;13.27;5.07;;;;;;;28.40;51.05;100174.81;4968553;28;20110;-72
2022/09/10 09:43:58;;;;;;;7.00;5.20;;;;;;;28.37;50.61;100142.22;4968680;28;20049;-75
2022/09/10 09:46:24;;;;;;;7.90;4.95;;;;;;;28.54;50.52;100160.94;4968620;28;20065;-75
2022/09/10 09:49:02;;;;;;;8.88;4.90;;;;;;;28.68;51.25;100165.69;4968539;28;20047;-74
2022/09/10 09:51:34;;;;;;;8.57;5.25;;;;;;;28.55;55.18;100157.38;4971701;28;20053;-77
2022/09/10 09:54:06;;;;;;;7.15;4.63;;;;;;;28.41;52.46;100128.75;4991607;28;20080;-74
2022/09/10 09:56:39;;;;;;;6.97;5.18;;;;;;;28.55;52.22;100149.41;5033393;28;20029;-71
2022/09/10 09:59:22;;;;;;;11.15;5.00;;;;;;;28.72;51.37;100154.03;5015695;28;20048;-74
2022/09/10 10:01:50;;;;;;;10.52;5.05;;;;;;;28.90;50.33;100135.53;5015335;28;20029;-74
2022/09/10 10:04:23;;;;;;;9.43;5.03;;;;;;;29.09;49.48;100142.69;5033321;28;20128;-72
2022/09/10 10:06:57;;;;;;;7.10;5.43;;;;;;;29.00;50.94;100136.00;5032625;28;20513;-71
2022/09/10 10:09:30;;;;;;;7.53;5.00;;;;;;;29.04;48.88;100122.47;5033075;28;20025;-76
2022/09/10 10:12:08;;;;;;;8.85;4.90;;;;;;;29.01;50.99;100132.38;5032062;28;20499;-74
2022/09/10 10:14:42;;;;;;;10.38;5.28;;;;;;;29.17;50.47;100125.44;5032339;28;20442;-75
2022/09/10 10:17:24;;;;;;;9.55;5.47;;;;;;;29.44;49.38;100116.28;5032291;28;20026;-73
2022/09/10 10:20:03;;;;;;;10.07;4.65;;;;;;;29.78;48.03;100115.50;5031496;28;20025;-73
2022/09/10 10:22:29;;;;;;;8.95;4.97;;;;;;;29.78;47.68;100107.50;5031237;28;20029;-73
2022/09/10 10:24:55;;;;;;;8.55;4.38;;;;;;;29.96;46.96;100118.25;5031835;28;20121;-73
2022/09/10 10:27:40;;;;;;;9.02;4.75;;;;;;;30.10;48.63;100110.41;4997041;28;20112;-73
2022/09/10 10:30:15;;;;;;;9.60;4.68;;;;;;;30.42;46.74;100107.03;4991709;28;20127;-73
2022/09/10 10:32:48;;;;;;;6.50;4.80;;;;;;;30.45;45.42;100099.75;5029917;28;20030;-74
2022/09/10 10:35:22;;;;;;;6.40;4.70;;;;;;;30.56;45.01;100104.56;5031763;28;20043;-73
2022/09/10 10:38:07;;;;;;;10.48;4.57;;;;;;;30.75;46.11;100103.59;5031709;28;20029;-74
2022/09/10 10:40:42;;;;;;;6.55;4.53;;;;;;;30.75;44.55;100088.44;4967179;28;20055;-75
2022/09/10 10:43:35;;;;;;;8.95;4.30;;;;;;;30.56;44.91;100090.41;4971056;28;20506;-74
2022/09/10 10:46:10;;;;;;;8.48;4.80;;;;;;;30.79;44.95;100090.03;4970795;28;20031;-75
2022/09/10 10:48:52;;;;;;;7.10;4.63;;;;;;;30.92;43.27;100084.88;4969243;28;20031;-70
2022/09/10 10:51:33;;;;;;;11.75;4.95;;;;;;;31.08;42.64;100078.72;4980151;28;20030;-76
2022/09/10 10:54:18;;;;;;;11.57;4.68;;;;;;;31.09;42.18;100076.00;4979544;28;20544;-73
2022/09/10 10:57:10;;;;;;;13.10;4.90;;;;;;;31.17;42.17;100072.91;4983513;28;20031;-70
2022/09/10 10:59:59;;;;;;;11.65;5.10;;;;;;;31.34;42.21;100066.63;4970245;28;20034;-71
2022/09/10 11:02:39;;;;;;;8.95;4.50;;;;;;;31.39;43.05;100045.91;4969353;28;20042;-72
2022/09/10 11:05:17;;;;;;;16.88;9.50;;;;;;;31.26;42.27;100048.38;4983289;28;20563;-71
2022/09/10 11:07:43;;;;;;;10.43;5.30;;;;;;;31.41;43.53;100035.97;4968207;28;20065;-71
2022/09/10 11:10:11;;;;;;;6.05;4.60;;;;;;;31.62;41.53;100030.38;4980013;28;20038;-72
2022/09/10 11:13:04;;;;;;;10.18;4.55;;;;;;;31.65;44.50;100019.53;4988991;28;20058;-74
2022/09/10 11:15:45;;;;;;;8.27;4.75;;;;;;;32.02;43.17;100030.69;4898440;29;20031;-74
2022/09/10 11:18:16;;;;;;;12.80;4.20;;;;;;;32.26;42.27;100022.19;4958083;28;20030;-73
2022/09/10 11:21:02;;;;;;;7.25;4.32;;;;;;;32.40;41.70;100013.31;4969157;28;20043;-76
2022/09/10 11:24:03;;;;;;;8.30;4.80;;;;;;;32.45;39.45;100000.56;4949780;29;20094;-76
2022/09/10 11:26:38;;;;;;;8.75;4.28;;;;;;;32.54;39.44;99999.97;4939469;29;20042;-75
2022/09/10 11:29:29;;;;;;;10.05;4.28;;;;;;;32.77;39.13;99999.50;4942005;29;20055;-68
2022/09/10 11:32:11;;;;;;;9.68;4.53;;;;;;;32.88;38.12;99991.66;4947984;29;20114;-69
2022/09/10 11:34:55;;;;;;;9.50;5.00;;;;;;;32.46;39.59;99996.91;4949265;29;20524;-71
2022/09/10 11:37:39;;;;;;;9.35;4.57;;;;;;;32.47;39.85;99985.28;4901455;29;20039;-72